sensor_id;sensor_type;location;lat;lon;timestamp;P1;durP1;ratioP1;P2;durP2;ratioP2
12884;SDS011;6510;51.362;7.370;2022-09-12T00:01:19;29.33;;;19.70;;
12884;SDS011;6510;51.362;7.370;2022-09-12T00:03:47;35.53;;;22.00;;
12884;SDS011;6510;51.362;7.370;2022-09-12T00:06:19;33.10;;;22.20;;
12884;SDS011;6510;51.362;7.370;2022-09-12T00:08:47;33.10;;;21.13;;
12884;SDS011;6510;51.362;7.370;2022-09-12T00:11:13;31.83;;;20.60;;
12884;SDS011;6510;51.362;7.370;2022-09-12T00:13:39;29.47;;;19.33;;
12884;SDS011;6510;51.362;7.370;2022-09-12T00:16:06;30.27;;;19.53;;
12884;SDS011;6510;51.362;7.370;2022-09-12T00:18:32;31.47;;;19.40;;
12884;SDS011;6510;51.362;7.370;2022-09-12T00:21:00;29.00;;;17.97;;
12884;SDS011;6510;51.362;7.370;2022-09-12T00:23:28;27.80;;;18.50;;
12884;SDS011;6510;51.362;7.370;2022-09-12T00:25:54;28.30;;;17.87;;
12884;SDS011;6510;51.362;7.370;2022-09-12T00:28:20;30.27;;;19.33;;
12884;SDS011;6510;51.362;7.370;2022-09-12T00:30:46;27.60;;;18.27;;
12884;SDS011;6510;51.362;7.370;2022-09-12T00:33:14;27.07;;;18.50;;
12884;SDS011;6510;51.362;7.370;2022-09-12T00:35:44;31.63;;;20.53;;
12884;SDS011;6510;51.362;7.370;2022-09-12T00:38:16;30.37;;;19.30;;
12884;SDS011;6510;51.362;7.370;2022-09-12T00:40:43;27.23;;;19.17;;
12884;SDS011;6510;51.362;7.370;2022-09-12T00:43:13;28.43;;;18.50;;
12884;SDS011;6510;51.362;7.370;2022-09-12T00:45:39;26.70;;;18.23;;
12884;SDS011;6510;51.362;7.370;2022-09-12T00:48:07;25.90;;;17.37;;
12884;SDS011;6510;51.362;7.370;2022-09-12T00:50:41;25.97;;;17.60;;
12884;SDS011;6510;51.362;7.370;2022-09-12T00:53:07;24.77;;;17.50;;
12884;SDS011;6510;51.362;7.370;2022-09-12T00:55:51;25.20;;;17.10;;
12884;SDS011;6510;51.362;7.370;2022-09-12T00:58:25;24.97;;;16.50;;
12884;SDS011;6510;51.362;7.370;2022-09-12T01:00:55;22.63;;;16.13;;
12884;SDS011;6510;51.362;7.370;2022-09-12T01:03:22;22.77;;;16.27;;
12884;SDS011;6510;51.362;7.370;2022-09-12T01:05:52;21.63;;;15.20;;
12884;SDS011;6510;51.362;7.370;2022-09-12T01:08:25;21.80;;;15.30;;
12884;SDS011;6510;51.362;7.370;2022-09-12T01:10:52;21.33;;;13.80;;
12884;SDS011;6510;51.362;7.370;2022-09-12T01:13:19;20.90;;;13.83;;
12884;SDS011;6510;51.362;7.370;2022-09-12T01:15:45;20.03;;;14.43;;
12884;SDS011;6510;51.362;7.370;2022-09-12T01:21:19;20.50;;;14.13;;
12884;SDS011;6510;51.362;7.370;2022-09-12T01:27:11;22.93;;;16.00;;
12884;SDS011;6510;51.362;7.370;2022-09-12T01:35:30;21.83;;;14.37;;
12884;SDS011;6510;51.362;7.370;2022-09-12T01:38:17;21.77;;;15.10;;
12884;SDS011;6510;51.362;7.370;2022-09-12T01:41:00;23.00;;;14.93;;
12884;SDS011;6510;51.362;7.370;2022-09-12T01:49:26;22.53;;;14.00;;
12884;SDS011;6510;51.362;7.370;2022-09-12T01:51:40;20.67;;;13.37;;
12884;SDS011;6510;51.362;7.370;2022-09-12T01:54:13;19.67;;;13.43;;
12884;SDS011;6510;51.362;7.370;2022-09-12T01:56:44;16.20;;;12.90;;
12884;SDS011;6510;51.362;7.370;2022-09-12T02:02:00;19.33;;;13.70;;
12884;SDS011;6510;51.362;7.370;2022-09-12T02:04:44;17.10;;;12.80;;
12884;SDS011;6510;51.362;7.370;2022-09-12T02:07:43;19.43;;;12.67;;
12884;SDS011;6510;51.362;7.370;2022-09-12T02:10:32;15.70;;;12.10;;
12884;SDS011;6510;51.362;7.370;2022-09-12T02:13:07;16.73;;;12.30;;
12884;SDS011;6510;51.362;7.370;2022-09-12T02:15:42;17.63;;;12.57;;
12884;SDS011;6510;51.362;7.370;2022-09-12T02:18:14;18.03;;;13.93;;
12884;SDS011;6510;51.362;7.370;2022-09-12T02:20:42;15.97;;;11.80;;
12884;SDS011;6510;51.362;7.370;2022-09-12T02:23:12;17.30;;;12.80;;
12884;SDS011;6510;51.362;7.370;2022-09-12T02:25:47;17.77;;;12.37;;
12884;SDS011;6510;51.362;7.370;2022-09-12T02:28:17;16.80;;;13.27;;
12884;SDS011;6510;51.362;7.370;2022-09-12T02:36:27;16.53;;;11.57;;
12884;SDS011;6510;51.362;7.370;2022-09-12T02:39:14;17.37;;;12.40;;
12884;SDS011;6510;51.362;7.370;2022-09-12T02:41:44;16.37;;;12.17;;
12884;SDS011;6510;51.362;7.370;2022-09-12T02:44:11;14.67;;;11.73;;
12884;SDS011;6510;51.362;7.370;2022-09-12T02:46:38;17.73;;;12.30;;
12884;SDS011;6510;51.362;7.370;2022-09-12T02:49:08;17.77;;;11.87;;
12884;SDS011;6510;51.362;7.370;2022-09-12T02:51:33;15.73;;;11.77;;
12884;SDS011;6510;51.362;7.370;2022-09-12T02:53:59;13.60;;;11.50;;
12884;SDS011;6510;51.362;7.370;2022-09-12T02:56:28;19.07;;;12.13;;
12884;SDS011;6510;51.362;7.370;2022-09-12T02:58:55;15.10;;;12.07;;
12884;SDS011;6510;51.362;7.370;2022-09-12T03:07:10;16.10;;;12.27;;
12884;SDS011;6510;51.362;7.370;2022-09-12T03:12:46;15.87;;;11.47;;
12884;SDS011;6510;51.362;7.370;2022-09-12T03:18:23;14.77;;;11.37;;
12884;SDS011;6510;51.362;7.370;2022-09-12T03:23:37;15.63;;;12.23;;
12884;SDS011;6510;51.362;7.370;2022-09-12T03:26:25;17.43;;;12.13;;
12884;SDS011;6510;51.362;7.370;2022-09-12T03:28:58;18.47;;;12.63;;
12884;SDS011;6510;51.362;7.370;2022-09-12T03:31:26;18.07;;;13.03;;
12884;SDS011;6510;51.362;7.370;2022-09-12T03:33:51;15.80;;;11.93;;
12884;SDS011;6510;51.362;7.370;2022-09-12T03:36:19;17.50;;;12.90;;
12884;SDS011;6510;51.362;7.370;2022-09-12T03:38:49;16.90;;;12.10;;
12884;SDS011;6510;51.362;7.370;2022-09-12T03:41:15;16.53;;;12.83;;
12884;SDS011;6510;51.362;7.370;2022-09-12T03:43:41;18.47;;;12.03;;
12884;SDS011;6510;51.362;7.370;2022-09-12T03:46:07;15.70;;;12.27;;
12884;SDS011;6510;51.362;7.370;2022-09-12T03:48:33;16.03;;;12.73;;
12884;SDS011;6510;51.362;7.370;2022-09-12T03:51:00;17.03;;;11.83;;
12884;SDS011;6510;51.362;7.370;2022-09-12T03:53:26;15.90;;;12.27;;
12884;SDS011;6510;51.362;7.370;2022-09-12T03:55:51;18.93;;;12.37;;
12884;SDS011;6510;51.362;7.370;2022-09-12T03:58:17;14.50;;;11.00;;
12884;SDS011;6510;51.362;7.370;2022-09-12T04:00:43;15.87;;;12.07;;
12884;SDS011;6510;51.362;7.370;2022-09-12T04:03:08;15.23;;;11.93;;
12884;SDS011;6510;51.362;7.370;2022-09-12T04:05:34;15.97;;;12.47;;
12884;SDS011;6510;51.362;7.370;2022-09-12T04:08:00;16.07;;;11.97;;
12884;SDS011;6510;51.362;7.370;2022-09-12T04:10:26;13.63;;;11.37;;
12884;SDS011;6510;51.362;7.370;2022-09-12T04:12:52;13.83;;;11.20;;
12884;SDS011;6510;51.362;7.370;2022-09-12T04:15:17;15.73;;;12.40;;
12884;SDS011;6510;51.362;7.370;2022-09-12T04:17:43;16.40;;;12.37;;
12884;SDS011;6510;51.362;7.370;2022-09-12T04:20:09;14.77;;;12.40;;
12884;SDS011;6510;51.362;7.370;2022-09-12T04:22:34;17.10;;;12.60;;
12884;SDS011;6510;51.362;7.370;2022-09-12T04:25:00;14.63;;;11.50;;
12884;SDS011;6510;51.362;7.370;2022-09-12T04:27:26;15.80;;;11.70;;
12884;SDS011;6510;51.362;7.370;2022-09-12T04:29:52;13.63;;;11.57;;
12884;SDS011;6510;51.362;7.370;2022-09-12T04:32:20;15.77;;;11.80;;
12884;SDS011;6510;51.362;7.370;2022-09-12T04:34:46;13.17;;;10.97;;
12884;SDS011;6510;51.362;7.370;2022-09-12T04:37:12;14.07;;;11.10;;
12884;SDS011;6510;51.362;7.370;2022-09-12T04:39:38;16.50;;;11.00;;
12884;SDS011;6510;51.362;7.370;2022-09-12T04:42:04;12.27;;;10.27;;
12884;SDS011;6510;51.362;7.370;2022-09-12T04:44:30;12.87;;;10.93;;
12884;SDS011;6510;51.362;7.370;2022-09-12T04:46:56;13.77;;;10.80;;
12884;SDS011;6510;51.362;7.370;2022-09-12T04:49:21;12.60;;;9.90;;
12884;SDS011;6510;51.362;7.370;2022-09-12T04:51:47;11.33;;;10.00;;
12884;SDS011;6510;51.362;7.370;2022-09-12T04:54:15;14.47;;;11.07;;
12884;SDS011;6510;51.362;7.370;2022-09-12T04:56:43;13.63;;;11.03;;
12884;SDS011;6510;51.362;7.370;2022-09-12T04:59:10;14.00;;;10.43;;
12884;SDS011;6510;51.362;7.370;2022-09-12T05:01:37;14.47;;;10.43;;
12884;SDS011;6510;51.362;7.370;2022-09-12T05:04:03;11.93;;;10.10;;
12884;SDS011;6510;51.362;7.370;2022-09-12T05:06:30;13.80;;;11.00;;
12884;SDS011;6510;51.362;7.370;2022-09-12T05:08:58;14.23;;;10.57;;
12884;SDS011;6510;51.362;7.370;2022-09-12T05:11:26;15.57;;;10.67;;
12884;SDS011;6510;51.362;7.370;2022-09-12T05:13:54;14.60;;;11.63;;
12884;SDS011;6510;51.362;7.370;2022-09-12T05:16:20;15.40;;;11.60;;
12884;SDS011;6510;51.362;7.370;2022-09-12T05:18:46;13.37;;;10.63;;
12884;SDS011;6510;51.362;7.370;2022-09-12T05:21:17;13.40;;;10.50;;
12884;SDS011;6510;51.362;7.370;2022-09-12T05:23:44;14.23;;;10.90;;
12884;SDS011;6510;51.362;7.370;2022-09-12T05:26:12;17.50;;;10.97;;
12884;SDS011;6510;51.362;7.370;2022-09-12T05:28:40;12.87;;;10.47;;
12884;SDS011;6510;51.362;7.370;2022-09-12T05:31:16;14.50;;;11.53;;
12884;SDS011;6510;51.362;7.370;2022-09-12T05:33:47;13.80;;;10.97;;
12884;SDS011;6510;51.362;7.370;2022-09-12T05:36:15;14.60;;;11.70;;
12884;SDS011;6510;51.362;7.370;2022-09-12T05:38:43;14.03;;;11.37;;
12884;SDS011;6510;51.362;7.370;2022-09-12T05:41:16;14.33;;;11.30;;
12884;SDS011;6510;51.362;7.370;2022-09-12T05:43:44;15.80;;;11.23;;
12884;SDS011;6510;51.362;7.370;2022-09-12T05:46:11;15.73;;;12.17;;
12884;SDS011;6510;51.362;7.370;2022-09-12T05:48:37;14.07;;;10.23;;
12884;SDS011;6510;51.362;7.370;2022-09-12T05:51:06;14.30;;;11.00;;
12884;SDS011;6510;51.362;7.370;2022-09-12T05:53:49;16.90;;;11.23;;
12884;SDS011;6510;51.362;7.370;2022-09-12T05:56:21;13.83;;;10.67;;
12884;SDS011;6510;51.362;7.370;2022-09-12T05:58:53;16.83;;;10.77;;
12884;SDS011;6510;51.362;7.370;2022-09-12T06:01:22;14.90;;;10.07;;
12884;SDS011;6510;51.362;7.370;2022-09-12T06:03:49;16.07;;;9.80;;
12884;SDS011;6510;51.362;7.370;2022-09-12T06:06:17;14.73;;;10.27;;
12884;SDS011;6510;51.362;7.370;2022-09-12T06:08:45;13.13;;;9.60;;
12884;SDS011;6510;51.362;7.370;2022-09-12T06:11:13;13.03;;;10.27;;
12884;SDS011;6510;51.362;7.370;2022-09-12T06:13:42;12.53;;;9.87;;
12884;SDS011;6510;51.362;7.370;2022-09-12T06:16:12;13.37;;;10.00;;
12884;SDS011;6510;51.362;7.370;2022-09-12T06:18:52;15.83;;;10.67;;
12884;SDS011;6510;51.362;7.370;2022-09-12T06:21:19;14.23;;;10.33;;
12884;SDS011;6510;51.362;7.370;2022-09-12T06:23:46;11.50;;;9.40;;
12884;SDS011;6510;51.362;7.370;2022-09-12T06:26:13;13.33;;;9.83;;
12884;SDS011;6510;51.362;7.370;2022-09-12T06:28:40;11.20;;;9.23;;
12884;SDS011;6510;51.362;7.370;2022-09-12T06:31:15;13.23;;;8.73;;
12884;SDS011;6510;51.362;7.370;2022-09-12T06:33:44;10.77;;;8.77;;
12884;SDS011;6510;51.362;7.370;2022-09-12T06:36:13;12.40;;;9.10;;
12884;SDS011;6510;51.362;7.370;2022-09-12T06:38:40;9.67;;;8.30;;
12884;SDS011;6510;51.362;7.370;2022-09-12T06:41:08;9.23;;;8.30;;
12884;SDS011;6510;51.362;7.370;2022-09-12T06:43:36;9.87;;;8.30;;
12884;SDS011;6510;51.362;7.370;2022-09-12T06:46:02;12.27;;;9.00;;
12884;SDS011;6510;51.362;7.370;2022-09-12T06:48:29;10.43;;;8.83;;
12884;SDS011;6510;51.362;7.370;2022-09-12T06:50:55;11.73;;;9.03;;
12884;SDS011;6510;51.362;7.370;2022-09-12T06:53:22;10.33;;;8.87;;
12884;SDS011;6510;51.362;7.370;2022-09-12T06:55:58;11.53;;;9.30;;
12884;SDS011;6510;51.362;7.370;2022-09-12T06:58:25;12.60;;;8.80;;
12884;SDS011;6510;51.362;7.370;2022-09-12T07:00:51;11.63;;;9.33;;
12884;SDS011;6510;51.362;7.370;2022-09-12T07:03:18;10.83;;;9.30;;
12884;SDS011;6510;51.362;7.370;2022-09-12T07:05:44;10.50;;;8.60;;
12884;SDS011;6510;51.362;7.370;2022-09-12T07:08:10;10.87;;;9.40;;
12884;SDS011;6510;51.362;7.370;2022-09-12T07:10:35;11.10;;;9.40;;
12884;SDS011;6510;51.362;7.370;2022-09-12T07:13:01;10.90;;;8.83;;
12884;SDS011;6510;51.362;7.370;2022-09-12T07:15:26;11.20;;;8.10;;
12884;SDS011;6510;51.362;7.370;2022-09-12T07:17:53;9.82;;;8.40;;
12884;SDS011;6510;51.362;7.370;2022-09-12T07:20:18;12.85;;;8.70;;
12884;SDS011;6510;51.362;7.370;2022-09-12T07:22:44;10.88;;;8.63;;
12884;SDS011;6510;51.362;7.370;2022-09-12T07:25:10;11.02;;;8.35;;
12884;SDS011;6510;51.362;7.370;2022-09-12T07:27:36;9.55;;;8.27;;
12884;SDS011;6510;51.362;7.370;2022-09-12T07:30:02;10.43;;;8.07;;
12884;SDS011;6510;51.362;7.370;2022-09-12T07:32:30;9.85;;;8.50;;
12884;SDS011;6510;51.362;7.370;2022-09-12T07:34:55;11.27;;;8.48;;
12884;SDS011;6510;51.362;7.370;2022-09-12T07:37:21;15.20;;;9.27;;
12884;SDS011;6510;51.362;7.370;2022-09-12T07:39:46;11.57;;;9.25;;
12884;SDS011;6510;51.362;7.370;2022-09-12T07:42:12;11.25;;;8.48;;
12884;SDS011;6510;51.362;7.370;2022-09-12T07:44:38;12.40;;;9.23;;
12884;SDS011;6510;51.362;7.370;2022-09-12T07:47:04;10.23;;;8.90;;
12884;SDS011;6510;51.362;7.370;2022-09-12T07:49:30;13.02;;;10.45;;
12884;SDS011;6510;51.362;7.370;2022-09-12T07:51:55;11.40;;;9.27;;
12884;SDS011;6510;51.362;7.370;2022-09-12T07:54:21;10.07;;;8.82;;
12884;SDS011;6510;51.362;7.370;2022-09-12T07:56:47;11.03;;;9.00;;
12884;SDS011;6510;51.362;7.370;2022-09-12T07:59:14;11.03;;;8.90;;
12884;SDS011;6510;51.362;7.370;2022-09-12T08:01:39;10.07;;;8.60;;
12884;SDS011;6510;51.362;7.370;2022-09-12T08:04:05;12.97;;;9.40;;
12884;SDS011;6510;51.362;7.370;2022-09-12T08:09:06;9.70;;;8.63;;
12884;SDS011;6510;51.362;7.370;2022-09-12T08:11:32;11.87;;;8.93;;
12884;SDS011;6510;51.362;7.370;2022-09-12T08:13:58;11.37;;;9.03;;
12884;SDS011;6510;51.362;7.370;2022-09-12T08:16:27;13.53;;;9.83;;
12884;SDS011;6510;51.362;7.370;2022-09-12T08:18:58;14.57;;;9.33;;
12884;SDS011;6510;51.362;7.370;2022-09-12T08:21:26;12.80;;;8.45;;
12884;SDS011;6510;51.362;7.370;2022-09-12T08:24:01;9.77;;;8.10;;
12884;SDS011;6510;51.362;7.370;2022-09-12T08:26:28;11.95;;;8.90;;
12884;SDS011;6510;51.362;7.370;2022-09-12T08:28:58;11.60;;;8.70;;
12884;SDS011;6510;51.362;7.370;2022-09-12T08:31:29;12.00;;;8.07;;
12884;SDS011;6510;51.362;7.370;2022-09-12T08:34:00;9.40;;;7.78;;
12884;SDS011;6510;51.362;7.370;2022-09-12T08:36:27;13.77;;;9.45;;
12884;SDS011;6510;51.362;7.370;2022-09-12T08:38:58;10.90;;;8.27;;
12884;SDS011;6510;51.362;7.370;2022-09-12T08:50:03;9.18;;;7.90;;
12884;SDS011;6510;51.362;7.370;2022-09-12T08:55:36;9.30;;;8.38;;
12884;SDS011;6510;51.362;7.370;2022-09-12T08:58:23;8.40;;;7.45;;
12884;SDS011;6510;51.362;7.370;2022-09-12T09:17:47;7.75;;;6.45;;
12884;SDS011;6510;51.362;7.370;2022-09-12T09:23:13;6.90;;;6.20;;
12884;SDS011;6510;51.362;7.370;2022-09-12T09:26:00;7.85;;;5.55;;
12884;SDS011;6510;51.362;7.370;2022-09-12T09:28:35;5.78;;;5.10;;
12884;SDS011;6510;51.362;7.370;2022-09-12T09:31:16;8.50;;;5.15;;
12884;SDS011;6510;51.362;7.370;2022-09-12T09:33:53;5.18;;;4.68;;
12884;SDS011;6510;51.362;7.370;2022-09-12T09:36:20;5.40;;;4.50;;
12884;SDS011;6510;51.362;7.370;2022-09-12T09:39:03;5.03;;;4.50;;
12884;SDS011;6510;51.362;7.370;2022-09-12T09:44:21;4.32;;;3.92;;
12884;SDS011;6510;51.362;7.370;2022-09-12T09:46:48;4.20;;;3.80;;
12884;SDS011;6510;51.362;7.370;2022-09-12T09:49:18;4.55;;;3.70;;
12884;SDS011;6510;51.362;7.370;2022-09-12T09:51:45;4.45;;;3.58;;
12884;SDS011;6510;51.362;7.370;2022-09-12T09:54:19;4.07;;;3.78;;
12884;SDS011;6510;51.362;7.370;2022-09-12T09:56:48;4.00;;;3.70;;
12884;SDS011;6510;51.362;7.370;2022-09-12T10:01:56;3.30;;;3.00;;
12884;SDS011;6510;51.362;7.370;2022-09-12T10:04:31;3.85;;;2.65;;
12884;SDS011;6510;51.362;7.370;2022-09-12T10:07:01;3.20;;;3.00;;
12884;SDS011;6510;51.362;7.370;2022-09-12T10:09:29;4.65;;;3.22;;
12884;SDS011;6510;51.362;7.370;2022-09-12T10:12:00;2.75;;;2.60;;
12884;SDS011;6510;51.362;7.370;2022-09-12T10:14:43;3.70;;;3.05;;
12884;SDS011;6510;51.362;7.370;2022-09-12T10:17:30;3.20;;;2.90;;
12884;SDS011;6510;51.362;7.370;2022-09-12T10:19:57;4.20;;;3.15;;
12884;SDS011;6510;51.362;7.370;2022-09-12T10:22:23;3.67;;;3.13;;
12884;SDS011;6510;51.362;7.370;2022-09-12T10:24:53;4.28;;;3.03;;
12884;SDS011;6510;51.362;7.370;2022-09-12T10:27:22;4.05;;;3.03;;
12884;SDS011;6510;51.362;7.370;2022-09-12T10:30:00;4.05;;;3.55;;
12884;SDS011;6510;51.362;7.370;2022-09-12T10:32:32;3.63;;;3.33;;
12884;SDS011;6510;51.362;7.370;2022-09-12T10:35:24;3.60;;;3.35;;
12884;SDS011;6510;51.362;7.370;2022-09-12T10:37:53;3.10;;;2.90;;
12884;SDS011;6510;51.362;7.370;2022-09-12T10:42:57;3.22;;;2.95;;
12884;SDS011;6510;51.362;7.370;2022-09-12T10:48:00;3.15;;;2.95;;
12884;SDS011;6510;51.362;7.370;2022-09-12T10:50:48;3.42;;;3.13;;
12884;SDS011;6510;51.362;7.370;2022-09-12T10:56:05;3.03;;;2.83;;
12884;SDS011;6510;51.362;7.370;2022-09-12T10:58:35;3.10;;;2.80;;
12884;SDS011;6510;51.362;7.370;2022-09-12T11:09:35;3.00;;;2.80;;
12884;SDS011;6510;51.362;7.370;2022-09-12T11:12:14;2.75;;;2.45;;
12884;SDS011;6510;51.362;7.370;2022-09-12T11:20:02;3.03;;;2.72;;
12884;SDS011;6510;51.362;7.370;2022-09-12T11:25:39;3.20;;;3.00;;
12884;SDS011;6510;51.362;7.370;2022-09-12T11:31:20;4.18;;;2.85;;
12884;SDS011;6510;51.362;7.370;2022-09-12T11:33:51;3.60;;;3.30;;
12884;SDS011;6510;51.362;7.370;2022-09-12T11:36:27;3.40;;;3.10;;
12884;SDS011;6510;51.362;7.370;2022-09-12T11:39:16;3.45;;;3.10;;
12884;SDS011;6510;51.362;7.370;2022-09-12T11:41:51;3.30;;;3.10;;
12884;SDS011;6510;51.362;7.370;2022-09-12T11:44:32;3.65;;;3.35;;
12884;SDS011;6510;51.362;7.370;2022-09-12T11:47:04;3.40;;;3.10;;
12884;SDS011;6510;51.362;7.370;2022-09-12T11:49:35;3.00;;;2.80;;
12884;SDS011;6510;51.362;7.370;2022-09-12T11:57:19;3.05;;;2.85;;
12884;SDS011;6510;51.362;7.370;2022-09-12T11:59:48;4.13;;;2.70;;
12884;SDS011;6510;51.362;7.370;2022-09-12T12:07:39;3.40;;;3.10;;
12884;SDS011;6510;51.362;7.370;2022-09-12T12:10:20;4.25;;;3.95;;
12884;SDS011;6510;51.362;7.370;2022-09-12T12:12:49;5.03;;;3.22;;
12884;SDS011;6510;51.362;7.370;2022-09-12T12:15:16;4.10;;;3.75;;
12884;SDS011;6510;51.362;7.370;2022-09-12T12:17:43;3.50;;;3.20;;
12884;SDS011;6510;51.362;7.370;2022-09-12T12:20:14;2.95;;;2.67;;
12884;SDS011;6510;51.362;7.370;2022-09-12T12:22:51;3.15;;;2.95;;
12884;SDS011;6510;51.362;7.370;2022-09-12T12:36:01;2.97;;;2.78;;
12884;SDS011;6510;51.362;7.370;2022-09-12T12:38:33;3.20;;;2.90;;
12884;SDS011;6510;51.362;7.370;2022-09-12T12:41:42;3.00;;;2.80;;
12884;SDS011;6510;51.362;7.370;2022-09-12T12:47:27;2.78;;;2.58;;
12884;SDS011;6510;51.362;7.370;2022-09-12T12:52:29;2.60;;;2.40;;
12884;SDS011;6510;51.362;7.370;2022-09-12T12:55:00;2.80;;;2.70;;
12884;SDS011;6510;51.362;7.370;2022-09-12T12:57:34;2.40;;;2.30;;
12884;SDS011;6510;51.362;7.370;2022-09-12T13:02:49;2.80;;;2.60;;
12884;SDS011;6510;51.362;7.370;2022-09-12T13:05:29;2.60;;;2.40;;
12884;SDS011;6510;51.362;7.370;2022-09-12T13:10:48;2.97;;;2.75;;
12884;SDS011;6510;51.362;7.370;2022-09-12T13:13:21;3.10;;;2.53;;
12884;SDS011;6510;51.362;7.370;2022-09-12T13:16:03;3.00;;;2.80;;
12884;SDS011;6510;51.362;7.370;2022-09-12T13:18:39;4.65;;;2.60;;
12884;SDS011;6510;51.362;7.370;2022-09-12T13:21:13;2.70;;;2.50;;
12884;SDS011;6510;51.362;7.370;2022-09-12T13:23:43;2.50;;;2.30;;
12884;SDS011;6510;51.362;7.370;2022-09-12T13:26:23;2.67;;;2.47;;
12884;SDS011;6510;51.362;7.370;2022-09-12T13:29:08;2.70;;;2.50;;
12884;SDS011;6510;51.362;7.370;2022-09-12T13:31:57;3.05;;;2.78;;
12884;SDS011;6510;51.362;7.370;2022-09-12T13:34:27;3.47;;;3.17;;
12884;SDS011;6510;51.362;7.370;2022-09-12T13:47:35;3.25;;;2.95;;
12884;SDS011;6510;51.362;7.370;2022-09-12T13:50:07;2.88;;;2.65;;
12884;SDS011;6510;51.362;7.370;2022-09-12T13:52:38;3.10;;;2.80;;
12884;SDS011;6510;51.362;7.370;2022-09-12T13:55:06;2.80;;;2.60;;
12884;SDS011;6510;51.362;7.370;2022-09-12T13:57:45;3.05;;;2.58;;
12884;SDS011;6510;51.362;7.370;2022-09-12T14:00:21;3.55;;;2.80;;
12884;SDS011;6510;51.362;7.370;2022-09-12T14:02:46;2.72;;;2.50;;
12884;SDS011;6510;51.362;7.370;2022-09-12T14:05:16;2.80;;;2.60;;
12884;SDS011;6510;51.362;7.370;2022-09-12T14:07:53;2.80;;;2.60;;
12884;SDS011;6510;51.362;7.370;2022-09-12T14:12:58;3.10;;;2.83;;
12884;SDS011;6510;51.362;7.370;2022-09-12T14:15:28;2.97;;;2.72;;
12884;SDS011;6510;51.362;7.370;2022-09-12T14:17:56;2.47;;;2.30;;
12884;SDS011;6510;51.362;7.370;2022-09-12T14:20:25;2.92;;;2.67;;
12884;SDS011;6510;51.362;7.370;2022-09-12T14:22:56;2.97;;;2.53;;
12884;SDS011;6510;51.362;7.370;2022-09-12T14:25:25;3.35;;;2.45;;
12884;SDS011;6510;51.362;7.370;2022-09-12T14:27:56;2.85;;;2.65;;
12884;SDS011;6510;51.362;7.370;2022-09-12T14:30:24;2.67;;;2.47;;
12884;SDS011;6510;51.362;7.370;2022-09-12T14:35:37;2.92;;;2.30;;
12884;SDS011;6510;51.362;7.370;2022-09-12T14:40:50;4.55;;;2.13;;
12884;SDS011;6510;51.362;7.370;2022-09-12T14:43:24;2.20;;;2.10;;
12884;SDS011;6510;51.362;7.370;2022-09-12T14:45:51;2.50;;;2.30;;
12884;SDS011;6510;51.362;7.370;2022-09-12T14:48:23;2.70;;;2.50;;
12884;SDS011;6510;51.362;7.370;2022-09-12T14:50:52;3.22;;;2.53;;
12884;SDS011;6510;51.362;7.370;2022-09-12T14:56:36;2.13;;;2.03;;
12884;SDS011;6510;51.362;7.370;2022-09-12T14:58:29;3.05;;;2.20;;
12884;SDS011;6510;51.362;7.370;2022-09-12T15:00:59;2.63;;;2.42;;
12884;SDS011;6510;51.362;7.370;2022-09-12T15:03:33;2.47;;;2.28;;
12884;SDS011;6510;51.362;7.370;2022-09-12T15:06:01;2.72;;;2.53;;
12884;SDS011;6510;51.362;7.370;2022-09-12T15:08:29;2.63;;;2.40;;
12884;SDS011;6510;51.362;7.370;2022-09-12T15:10:55;4.80;;;2.40;;
12884;SDS011;6510;51.362;7.370;2022-09-12T15:13:26;2.53;;;2.38;;
12884;SDS011;6510;51.362;7.370;2022-09-12T15:15:56;2.47;;;2.30;;
12884;SDS011;6510;51.362;7.370;2022-09-12T15:18:24;2.10;;;2.00;;
12884;SDS011;6510;51.362;7.370;2022-09-12T15:20:53;2.33;;;2.22;;
12884;SDS011;6510;51.362;7.370;2022-09-12T15:23:24;2.47;;;2.33;;
12884;SDS011;6510;51.362;7.370;2022-09-12T15:26:10;2.67;;;2.30;;
12884;SDS011;6510;51.362;7.370;2022-09-12T15:28:38;2.90;;;2.58;;
12884;SDS011;6510;51.362;7.370;2022-09-12T15:31:10;2.40;;;2.20;;
12884;SDS011;6510;51.362;7.370;2022-09-12T15:33:46;2.70;;;2.17;;
12884;SDS011;6510;51.362;7.370;2022-09-12T15:36:12;2.20;;;2.10;;
12884;SDS011;6510;51.362;7.370;2022-09-12T15:38:40;2.42;;;2.33;;
12884;SDS011;6510;51.362;7.370;2022-09-12T15:41:19;2.20;;;2.10;;
12884;SDS011;6510;51.362;7.370;2022-09-12T15:43:47;5.50;;;2.50;;
12884;SDS011;6510;51.362;7.370;2022-09-12T15:46:14;2.38;;;2.28;;
12884;SDS011;6510;51.362;7.370;2022-09-12T15:48:41;2.55;;;2.35;;
12884;SDS011;6510;51.362;7.370;2022-09-12T15:51:09;2.15;;;2.05;;
12884;SDS011;6510;51.362;7.370;2022-09-12T15:53:39;2.50;;;2.40;;
12884;SDS011;6510;51.362;7.370;2022-09-12T15:56:05;3.28;;;2.50;;
12884;SDS011;6510;51.362;7.370;2022-09-12T15:58:31;2.50;;;2.30;;
12884;SDS011;6510;51.362;7.370;2022-09-12T16:00:57;2.70;;;2.50;;
12884;SDS011;6510;51.362;7.370;2022-09-12T16:03:23;2.75;;;2.55;;
12884;SDS011;6510;51.362;7.370;2022-09-12T16:06:01;2.60;;;2.40;;
12884;SDS011;6510;51.362;7.370;2022-09-12T16:08:28;2.65;;;2.50;;
12884;SDS011;6510;51.362;7.370;2022-09-12T16:11:09;2.45;;;2.35;;
12884;SDS011;6510;51.362;7.370;2022-09-12T16:13:40;2.58;;;2.38;;
12884;SDS011;6510;51.362;7.370;2022-09-12T16:16:07;3.17;;;2.50;;
12884;SDS011;6510;51.362;7.370;2022-09-12T16:18:33;2.70;;;2.50;;
12884;SDS011;6510;51.362;7.370;2022-09-12T16:20:59;3.25;;;2.95;;
12884;SDS011;6510;51.362;7.370;2022-09-12T16:23:24;3.83;;;2.83;;
12884;SDS011;6510;51.362;7.370;2022-09-12T16:28:26;2.90;;;2.70;;
12884;SDS011;6510;51.362;7.370;2022-09-12T16:30:56;2.47;;;2.28;;
12884;SDS011;6510;51.362;7.370;2022-09-12T16:33:23;2.40;;;2.30;;
12884;SDS011;6510;51.362;7.370;2022-09-12T16:35:50;4.60;;;2.60;;
12884;SDS011;6510;51.362;7.370;2022-09-12T16:38:19;2.90;;;2.60;;
12884;SDS011;6510;51.362;7.370;2022-09-12T16:40:45;3.33;;;2.67;;
12884;SDS011;6510;51.362;7.370;2022-09-12T16:43:11;2.97;;;2.75;;
12884;SDS011;6510;51.362;7.370;2022-09-12T16:45:37;2.60;;;2.40;;
12884;SDS011;6510;51.362;7.370;2022-09-12T16:48:03;3.92;;;2.72;;
12884;SDS011;6510;51.362;7.370;2022-09-12T16:50:29;2.58;;;2.38;;
12884;SDS011;6510;51.362;7.370;2022-09-12T16:52:54;2.55;;;2.45;;
12884;SDS011;6510;51.362;7.370;2022-09-12T16:55:20;3.10;;;2.65;;
12884;SDS011;6510;51.362;7.370;2022-09-12T16:57:46;2.95;;;2.75;;
12884;SDS011;6510;51.362;7.370;2022-09-12T17:00:13;2.80;;;2.60;;
12884;SDS011;6510;51.362;7.370;2022-09-12T17:02:39;3.38;;;2.60;;
12884;SDS011;6510;51.362;7.370;2022-09-12T17:05:05;2.78;;;2.58;;
12884;SDS011;6510;51.362;7.370;2022-09-12T17:07:30;2.80;;;2.60;;
12884;SDS011;6510;51.362;7.370;2022-09-12T17:09:58;2.50;;;2.30;;
12884;SDS011;6510;51.362;7.370;2022-09-12T17:12:23;2.67;;;2.47;;
12884;SDS011;6510;51.362;7.370;2022-09-12T17:14:49;2.83;;;2.63;;
12884;SDS011;6510;51.362;7.370;2022-09-12T17:17:15;2.75;;;2.55;;
12884;SDS011;6510;51.362;7.370;2022-09-12T17:19:41;2.50;;;2.30;;
12884;SDS011;6510;51.362;7.370;2022-09-12T17:22:07;2.80;;;2.60;;
12884;SDS011;6510;51.362;7.370;2022-09-12T17:24:33;2.70;;;2.50;;
12884;SDS011;6510;51.362;7.370;2022-09-12T17:26:59;2.28;;;2.13;;
12884;SDS011;6510;51.362;7.370;2022-09-12T17:29:24;2.97;;;2.60;;
12884;SDS011;6510;51.362;7.370;2022-09-12T17:31:50;2.70;;;2.58;;
12884;SDS011;6510;51.362;7.370;2022-09-12T17:34:16;2.92;;;2.53;;
12884;SDS011;6510;51.362;7.370;2022-09-12T17:36:42;2.90;;;2.55;;
12884;SDS011;6510;51.362;7.370;2022-09-12T17:39:08;5.53;;;2.70;;
12884;SDS011;6510;51.362;7.370;2022-09-12T17:41:35;3.42;;;3.03;;
12884;SDS011;6510;51.362;7.370;2022-09-12T17:44:01;3.47;;;2.90;;
12884;SDS011;6510;51.362;7.370;2022-09-12T17:46:31;2.88;;;2.67;;
12884;SDS011;6510;51.362;7.370;2022-09-12T17:48:59;3.63;;;3.33;;
12884;SDS011;6510;51.362;7.370;2022-09-12T17:51:27;2.88;;;2.67;;